CheckWX is a tool to help pilots better visualize weather data.  It is not intended as a substitute for an official pre-flight weather briefing.

08:04:16 UTC

KFXE TAF
Fort Lauderdale Executive Airport
Fort Lauderdale, Florida, USA
KFXE 190541Z 1906/2006 03008KT P6SM VCSH SCT008 BKN015 OVC025 TEMPO 1909/1912 2SM RA BR BKN008 OVC015 FM191200 03010KT P6SM SHRA SCT010 OVC020 FM191700 02010G20KT P6SM -SHRA SCT015 BKN025 OVC035 FM200100 05008KT P6SM VCSH SCT020 BKN035 OVC050

Mar-19@
06:00 UTC

Mar-19 @ 06:00 UTC

Mar-19@
12:00 UTC

Mar-19 @ 12:00 UTC

KFXE 190541Z 1906/2006 03008KT P6SM VCSH SCT008 BKN015 OVC025
Wind
  • 030° at 8 KTS
Cloud Levels
  • Scattered at 800' AGL
  • Broken at 1,500' AGL
  • Overcast at 2,500' AGL

Mar-19@
09:00 UTC

Mar-19 @ 09:00 UTC

Mar-19@
12:00 UTC

Mar-19 @ 12:00 UTC

TEMPO 1909/1912 2SM RA BR BKN008 OVC015

Temporary

Temporary Changes expected for less than half the time period

Conditions
Rain, Mist
Cloud Levels
  • Broken at 800' AGL
  • Overcast at 1,500' AGL

Mar-19@
12:00 UTC

Mar-19 @ 12:00 UTC

Mar-19@
17:00 UTC

Mar-19 @ 17:00 UTC

FM191200 03010KT P6SM SHRA SCT010 OVC020

From

From Standard forecast or significant change

Wind
  • 030° at 10 KTS
Conditions
Rain
Cloud Levels
  • Scattered at 1,000' AGL
  • Overcast at 2,000' AGL

Mar-19@
17:00 UTC

Mar-19 @ 17:00 UTC

Mar-20@
01:00 UTC

Mar-20 @ 01:00 UTC

FM191700 02010G20KT P6SM -SHRA SCT015 BKN025 OVC035

From

From Standard forecast or significant change

Wind
  • 020° at 10 KTS
  • {Gusting to 20 KTS
Conditions
Light Rain
Cloud Levels
  • Scattered at 1,500' AGL
  • Broken at 2,500' AGL
  • Overcast at 3,500' AGL

Mar-20@
01:00 UTC

Mar-20 @ 01:00 UTC

Mar-20@
06:00 UTC

Mar-20 @ 06:00 UTC

FM200100 05008KT P6SM VCSH SCT020 BKN035 OVC050

From

From Standard forecast or significant change

Wind
  • 050° at 8 KTS
Cloud Levels
  • Scattered at 2,000' AGL
  • Broken at 3,500' AGL
  • Overcast at 5,000' AGL